createdAt,value
2019-01-08T00:02:04.800Z,7.30
2019-01-08T00:07:08.365Z,5.73
2019-01-08T00:12:11.677Z,5.77
2019-01-08T00:17:14.661Z,6.43
2019-01-08T00:22:17.879Z,7.20
2019-01-08T00:27:21.635Z,6.43
2019-01-08T00:32:25.161Z,6.17
2019-01-08T00:37:30.292Z,8.57
2019-01-08T00:42:33.465Z,6.73
2019-01-08T00:47:36.980Z,6.30
2019-01-08T00:52:40.328Z,6.83
2019-01-08T00:57:44.425Z,6.17
2019-01-08T01:02:48.176Z,4.83
2019-01-08T01:07:51.091Z,7.00
2019-01-08T01:12:54.095Z,6.07
2019-01-08T01:17:57.618Z,6.53
2019-01-08T01:23:00.809Z,5.57
2019-01-08T01:28:03.813Z,5.97
2019-01-08T01:33:07.101Z,6.20
2019-01-08T01:38:10.447Z,6.30
2019-01-08T01:43:13.852Z,5.13
2019-01-08T01:48:17.174Z,4.53
2019-01-08T01:53:20.395Z,4.57
2019-01-08T01:58:24.006Z,4.53
2019-01-08T02:03:26.552Z,4.37
2019-01-08T02:08:29.788Z,5.50
2019-01-08T02:13:33.000Z,4.00
2019-01-08T02:24:57.357Z,4.90
2019-01-08T02:30:00.884Z,5.57
2019-01-08T02:35:04.184Z,6.30
2019-01-08T02:46:28.324Z,6.97
2019-01-08T02:51:31.104Z,5.67
2019-01-08T02:56:33.719Z,5.63
2019-01-08T03:01:36.075Z,5.93
2019-01-08T03:06:38.998Z,7.80
2019-01-08T03:11:41.398Z,6.47
2019-01-08T03:16:43.785Z,7.03
2019-01-08T03:21:46.764Z,5.87
2019-01-08T03:26:49.291Z,6.53
2019-01-08T03:31:52.269Z,8.07
2019-01-08T03:36:53.925Z,6.20
2019-01-08T03:41:56.239Z,8.63
2019-01-08T03:46:58.951Z,6.63
2019-01-08T03:52:01.536Z,10.30
2019-01-08T03:57:04.008Z,8.87
2019-01-08T04:02:06.430Z,7.10
2019-01-08T04:07:09.212Z,6.53
2019-01-08T04:12:11.816Z,6.93
2019-01-08T04:17:14.711Z,6.23
2019-01-08T04:22:17.110Z,6.70
2019-01-08T04:27:19.458Z,6.37
2019-01-08T04:32:22.462Z,6.90
2019-01-08T04:37:25.414Z,5.83
2019-01-08T04:42:27.690Z,5.70
2019-01-08T04:47:30.376Z,7.40
2019-01-08T04:52:33.014Z,6.70
2019-01-08T04:57:36.101Z,7.03
2019-01-08T05:02:38.717Z,8.90
2019-01-08T05:07:40.989Z,5.87
2019-01-08T05:12:43.066Z,5.00
2019-01-08T05:17:46.061Z,5.20
2019-01-08T05:22:48.762Z,5.90
2019-01-08T05:27:51.052Z,5.73
2019-01-08T05:32:53.327Z,6.20
2019-01-08T05:37:55.622Z,6.10
2019-01-08T05:42:58.219Z,5.87
2019-01-08T05:48:01.196Z,6.73
2019-01-08T05:53:03.862Z,6.67
2019-01-08T05:58:06.307Z,6.90
2019-01-08T06:03:08.931Z,8.60
2019-01-08T06:08:12.001Z,7.77
2019-01-08T06:13:14.716Z,8.07
2019-01-08T06:18:17.447Z,7.87
2019-01-08T06:23:20.117Z,7.77
2019-01-08T06:28:22.399Z,8.20
2019-01-08T06:33:24.595Z,6.30
2019-01-08T06:38:26.982Z,7.13
2019-01-08T06:43:29.860Z,5.40
2019-01-08T06:48:32.776Z,5.93
2019-01-08T06:53:35.747Z,6.90
2019-01-08T06:58:38.491Z,6.27
2019-01-08T07:03:41.454Z,5.70
2019-01-08T07:08:43.789Z,5.90
2019-01-08T07:13:46.497Z,5.07
2019-01-08T07:18:48.884Z,5.50
2019-01-08T07:23:51.584Z,4.73
2019-01-08T07:28:54.075Z,3.90
2019-01-08T07:33:56.907Z,3.73
2019-01-08T07:38:58.957Z,3.57
2019-01-08T07:44:01.716Z,3.63
2019-01-08T07:49:04.129Z,2.37
2019-01-08T07:54:06.766Z,2.93
2019-01-08T07:59:09.321Z,3.30
2019-01-08T08:04:11.310Z,4.30
2019-01-08T08:09:13.952Z,2.53
2019-01-08T08:14:16.798Z,2.60
2019-01-08T08:19:18.799Z,3.30
2019-01-08T08:24:21.387Z,3.20
2019-01-08T08:29:23.749Z,2.90
2019-01-08T08:34:26.387Z,2.83
2019-01-08T08:39:28.770Z,4.33
2019-01-08T08:44:31.108Z,3.90
2019-01-08T08:49:33.438Z,2.60
2019-01-08T08:54:36.081Z,3.03
2019-01-08T08:59:38.112Z,1.93
2019-01-08T09:04:40.873Z,1.40
2019-01-08T09:09:43.892Z,1.47
2019-01-08T09:14:46.809Z,1.17
2019-01-08T09:19:49.462Z,2.03
2019-01-08T09:24:52.120Z,1.60
2019-01-08T09:29:54.985Z,1.53
2019-01-08T09:34:56.699Z,1.47
2019-01-08T09:39:59.578Z,1.63
2019-01-08T09:45:02.209Z,1.20
2019-01-08T09:50:05.357Z,0.97
2019-01-08T09:55:07.888Z,1.00
2019-01-08T10:00:10.949Z,1.20
2019-01-08T10:05:13.152Z,1.70
2019-01-08T10:10:15.744Z,1.10
2019-01-08T10:15:18.481Z,1.07
2019-01-08T10:20:20.956Z,1.20
2019-01-08T10:25:23.881Z,0.90
2019-01-08T10:30:26.313Z,1.10
2019-01-08T10:35:28.657Z,0.93
2019-01-08T10:40:30.965Z,0.80
2019-01-08T10:45:34.505Z,0.93
2019-01-08T10:50:36.666Z,1.60
2019-01-08T10:55:38.941Z,1.90
2019-01-08T11:00:41.335Z,1.10
2019-01-08T11:05:44.001Z,2.13
2019-01-08T11:10:46.722Z,1.93
2019-01-08T11:15:49.429Z,1.23
2019-01-08T11:20:51.437Z,1.33
2019-01-08T11:25:54.150Z,1.67
2019-01-08T11:30:57.084Z,2.20
2019-01-08T11:35:59.509Z,1.97
2019-01-08T11:41:01.891Z,1.27
2019-01-08T11:46:04.861Z,1.47
2019-01-08T11:51:06.897Z,2.27
2019-01-08T11:56:09.643Z,1.40
2019-01-08T12:01:12.238Z,1.97
2019-01-08T12:06:14.676Z,1.40
2019-01-08T12:11:18.585Z,1.63
2019-01-08T12:16:20.985Z,1.10
2019-01-08T12:21:24.100Z,1.10
2019-01-08T12:26:27.051Z,1.27
2019-01-08T12:31:29.489Z,1.73
2019-01-08T12:36:32.207Z,1.43
2019-01-08T12:41:35.261Z,0.97
2019-01-08T12:46:37.882Z,1.33
2019-01-08T12:51:40.590Z,1.03
2019-01-08T12:56:43.559Z,0.93
2019-01-08T13:01:46.946Z,0.97
2019-01-08T13:06:49.300Z,1.13
2019-01-08T13:11:52.192Z,0.93
2019-01-08T13:16:54.184Z,0.90
2019-01-08T13:21:56.266Z,0.80
2019-01-08T13:26:59.367Z,1.10
2019-01-08T13:32:02.260Z,1.13
2019-01-08T13:37:05.049Z,1.07
2019-01-08T13:42:07.989Z,1.00
2019-01-08T13:47:10.962Z,1.30
2019-01-08T13:52:14.004Z,1.00
2019-01-08T13:57:16.477Z,1.20
2019-01-08T14:02:18.959Z,1.50
2019-01-08T14:07:21.353Z,1.40
2019-01-08T14:12:23.868Z,1.33
2019-01-08T14:17:26.668Z,1.70
2019-01-08T14:22:29.599Z,1.10
2019-01-08T14:27:32.364Z,0.73
2019-01-08T14:32:40.523Z,1.30
2019-01-08T14:37:40.347Z,1.93
2019-01-08T14:42:42.473Z,1.53
2019-01-08T14:47:45.000Z,1.50
2019-01-08T14:52:47.354Z,1.17
2019-01-08T14:57:50.274Z,0.90
2019-01-08T15:02:53.196Z,1.20
2019-01-08T15:07:56.165Z,1.33
2019-01-08T15:12:59.303Z,1.50
2019-01-08T15:18:02.328Z,3.80
2019-01-08T15:23:05.314Z,2.47
2019-01-08T15:28:08.405Z,2.10
2019-01-08T15:33:10.891Z,2.80
2019-01-08T15:38:13.009Z,1.53
2019-01-08T15:43:15.394Z,3.37
2019-01-08T15:48:17.777Z,1.37
2019-01-08T15:53:20.153Z,1.20
2019-01-08T15:58:22.873Z,1.00
2019-01-08T16:03:25.532Z,1.20
2019-01-08T16:08:28.204Z,1.60
2019-01-08T16:13:30.644Z,1.60
2019-01-08T16:18:33.456Z,1.33
2019-01-08T16:23:36.332Z,1.07
2019-01-08T16:28:39.078Z,1.20
2019-01-08T16:33:42.169Z,1.63
2019-01-08T16:38:45.269Z,1.30
2019-01-08T16:43:47.813Z,1.20
2019-01-08T16:48:50.890Z,1.10
2019-01-08T16:53:53.964Z,2.93
2019-01-08T16:58:56.684Z,1.43
2019-01-08T17:03:59.267Z,1.53
2019-01-08T17:09:02.361Z,1.13
2019-01-08T17:14:05.053Z,0.70
2019-01-08T17:19:07.747Z,1.20
2019-01-08T17:24:10.160Z,0.90
2019-01-08T17:29:13.220Z,0.90
2019-01-08T17:34:16.022Z,0.83
2019-01-08T17:39:18.670Z,0.80
2019-01-08T17:44:20.857Z,1.03
2019-01-08T17:49:23.826Z,1.10
2019-01-08T17:54:26.892Z,1.03
2019-01-08T17:59:29.771Z,1.00
2019-01-08T18:04:32.281Z,1.23
2019-01-08T18:09:35.395Z,1.10
2019-01-08T18:14:38.292Z,0.80
2019-01-08T18:19:41.752Z,0.90
2019-01-08T18:24:46.764Z,1.00
2019-01-08T18:29:49.243Z,1.17
2019-01-08T18:34:52.403Z,1.10
2019-01-08T18:39:55.687Z,1.00
2019-01-08T18:44:59.283Z,0.77
2019-01-08T18:50:01.570Z,0.90
2019-01-08T18:55:03.873Z,1.00
2019-01-08T19:00:06.818Z,1.13
2019-01-08T19:05:10.085Z,0.83
2019-01-08T19:10:14.204Z,0.90
2019-01-08T19:15:16.824Z,1.07
2019-01-08T19:20:21.782Z,1.07
2019-01-08T19:25:26.040Z,0.80
2019-01-08T19:30:29.784Z,1.13
2019-01-08T19:35:35.403Z,0.90
2019-01-08T19:40:41.350Z,1.23
2019-01-08T19:45:46.560Z,0.80
2019-01-08T19:50:51.964Z,1.63
2019-01-08T19:55:58.066Z,1.40
2019-01-08T20:01:03.623Z,1.60
2019-01-08T20:06:09.449Z,1.00
2019-01-08T20:11:15.596Z,1.10
2019-01-08T20:16:20.334Z,1.43
2019-01-08T20:21:23.789Z,1.20
2019-01-08T20:26:28.235Z,1.47
2019-01-08T20:31:31.866Z,1.40
2019-01-08T20:36:37.717Z,1.20
2019-01-08T20:41:41.356Z,1.13
2019-01-08T20:46:47.446Z,1.70
2019-01-08T20:51:50.772Z,1.90
2019-01-08T20:56:54.448Z,1.23
2019-01-08T21:01:57.870Z,2.27
2019-01-08T21:07:01.098Z,2.07
2019-01-08T21:12:04.504Z,1.40
2019-01-08T21:17:07.625Z,1.70
2019-01-08T21:22:11.584Z,1.57
2019-01-08T21:27:15.626Z,1.80
2019-01-08T21:32:18.792Z,1.50
2019-01-08T21:37:21.691Z,1.80
2019-01-08T21:42:24.401Z,1.80
2019-01-08T21:47:27.043Z,2.40
2019-01-08T21:52:30.237Z,1.53
2019-01-08T21:57:33.291Z,1.90
2019-01-08T22:02:36.167Z,1.63
2019-01-08T22:07:39.347Z,2.23
2019-01-08T22:12:42.419Z,1.80
2019-01-08T22:17:45.562Z,2.37
2019-01-08T22:22:52.619Z,2.40
2019-01-08T22:27:52.729Z,2.73
2019-01-08T22:32:55.897Z,1.57
2019-01-08T22:38:25.127Z,2.37
2019-01-08T22:43:53.108Z,1.37
2019-01-08T22:48:58.943Z,1.37
2019-01-08T22:54:03.981Z,1.77
2019-01-08T22:59:09.171Z,2.20
2019-01-08T23:04:27.288Z,1.50
2019-01-08T23:09:34.108Z,2.23
2019-01-08T23:14:39.700Z,1.57
2019-01-08T23:19:44.654Z,1.67
2019-01-08T23:24:48.864Z,1.93
2019-01-08T23:29:51.488Z,1.10
2019-01-08T23:34:58.478Z,1.33
2019-01-08T23:40:05.034Z,1.47
2019-01-08T23:45:13.054Z,1.37
2019-01-08T23:50:16.460Z,0.90
2019-01-08T23:55:22.047Z,0.90
